createdAt,value
2019-01-19T00:02:27.164Z,13.28
2019-01-19T00:05:10.622Z,12.82
2019-01-19T00:08:00.988Z,11.33
2019-01-19T00:10:48.797Z,13.05
2019-01-19T00:13:35.329Z,9.73
2019-01-19T00:16:13.180Z,12.33
2019-01-19T00:18:53.408Z,12.60
2019-01-19T00:21:32.864Z,11.03
2019-01-19T00:24:33.604Z,12.78
2019-01-19T00:27:29.892Z,12.82
2019-01-19T00:30:31.198Z,12.23
2019-01-19T00:33:28.500Z,11.57
2019-01-19T00:36:07.004Z,12.50
2019-01-19T00:39:08.085Z,13.70
2019-01-19T00:41:46.344Z,11.33
2019-01-19T00:44:42.876Z,13.00
2019-01-19T00:47:50.504Z,12.90
2019-01-19T00:51:00.248Z,11.90
2019-01-19T00:53:36.045Z,12.88
2019-01-19T00:56:24.340Z,12.75
2019-01-19T00:58:59.386Z,13.80
2019-01-19T01:01:54.739Z,12.50
2019-01-19T01:04:33.337Z,13.43
2019-01-19T01:07:29.027Z,13.80
2019-01-19T01:10:02.699Z,11.47
2019-01-19T01:12:53.645Z,13.90
2019-01-19T01:15:52.200Z,13.75
2019-01-19T01:18:38.226Z,11.20
2019-01-19T01:21:45.993Z,13.90
2019-01-19T01:24:27.749Z,13.60
2019-01-19T01:27:17.800Z,11.43
2019-01-19T01:29:59.691Z,13.35
2019-01-19T01:32:35.693Z,13.35
2019-01-19T01:35:21.320Z,12.27
2019-01-19T01:37:59.676Z,12.97
2019-01-19T01:40:39.260Z,13.50
2019-01-19T01:43:40.345Z,12.17
2019-01-19T01:46:17.503Z,13.40
2019-01-19T01:49:08.436Z,13.80
2019-01-19T01:52:12.680Z,11.73
2019-01-19T01:54:49.632Z,13.68
2019-01-19T01:57:25.991Z,13.90
2019-01-19T02:00:18.149Z,11.73
2019-01-19T02:03:01.383Z,13.20
2019-01-19T02:05:40.304Z,13.95
2019-01-19T02:08:30.048Z,11.77
2019-01-19T02:11:23.000Z,13.20
2019-01-19T02:14:11.999Z,13.93
2019-01-19T02:17:05.056Z,12.60
2019-01-19T02:19:43.514Z,13.25
2019-01-19T02:22:18.720Z,11.77
2019-01-19T02:25:13.720Z,13.13
2019-01-19T02:28:23.480Z,14.13
2019-01-19T02:31:15.654Z,14.60
2019-01-19T02:33:58.488Z,11.53
2019-01-19T02:36:56.347Z,12.82
2019-01-19T02:39:36.117Z,14.50
2019-01-19T02:42:30.338Z,10.60
2019-01-19T02:45:44.740Z,12.37
2019-01-19T02:48:33.816Z,12.95
2019-01-19T02:51:10.533Z,13.50
2019-01-19T02:53:50.312Z,11.43
2019-01-19T02:56:26.368Z,14.28
2019-01-19T02:59:28.449Z,13.88
2019-01-19T03:02:13.723Z,11.40
2019-01-19T03:04:52.965Z,14.20
2019-01-19T03:07:46.120Z,13.10
2019-01-19T03:10:31.110Z,11.90
2019-01-19T03:13:09.388Z,12.63
2019-01-19T03:16:01.739Z,13.10
2019-01-19T03:18:37.253Z,13.48
2019-01-19T03:21:43.235Z,10.60
2019-01-19T03:24:37.984Z,12.80
2019-01-19T03:27:35.690Z,13.43
2019-01-19T03:30:16.113Z,12.70
2019-01-19T03:33:02.716Z,12.90
2019-01-19T03:36:04.057Z,12.60
2019-01-19T03:38:49.705Z,12.50
2019-01-19T03:41:39.373Z,13.40
2019-01-19T03:44:15.967Z,10.60
2019-01-19T03:47:07.831Z,12.57
2019-01-19T03:50:03.226Z,12.53
2019-01-19T03:52:44.267Z,11.40
2019-01-19T03:55:41.624Z,13.00
2019-01-19T03:58:18.194Z,13.50
2019-01-19T04:01:05.039Z,11.70
2019-01-19T04:03:49.249Z,12.15
2019-01-19T04:06:39.953Z,12.80
2019-01-19T04:09:23.784Z,11.23
2019-01-19T04:12:05.444Z,11.90
2019-01-19T04:14:50.817Z,12.58
2019-01-19T04:17:29.240Z,10.50
2019-01-19T04:20:29.973Z,12.58
2019-01-19T04:23:00.640Z,10.13
2019-01-19T04:25:36.056Z,11.30
2019-01-19T04:28:02.940Z,12.30
2019-01-19T04:30:29.701Z,11.30
2019-01-19T04:32:56.497Z,11.30
2019-01-19T04:35:23.237Z,11.80
2019-01-19T04:37:49.980Z,10.03
2019-01-19T04:40:16.737Z,11.55
2019-01-19T04:42:44.764Z,11.93
2019-01-19T04:45:11.557Z,11.37
2019-01-19T04:47:38.321Z,10.95
2019-01-19T04:50:05.913Z,11.80
2019-01-19T04:52:32.665Z,11.43
2019-01-19T04:54:59.428Z,9.87
2019-01-19T04:57:26.176Z,10.82
2019-01-19T04:59:52.921Z,11.00
2019-01-19T05:02:19.677Z,10.90
2019-01-19T05:04:46.446Z,10.65
2019-01-19T05:07:13.193Z,11.40
2019-01-19T05:09:39.938Z,9.73
2019-01-19T05:12:06.696Z,10.80
2019-01-19T05:14:33.416Z,11.83
2019-01-19T05:17:00.190Z,9.67
2019-01-19T05:19:26.929Z,11.73
2019-01-19T05:21:53.699Z,10.95
2019-01-19T05:24:20.437Z,10.10
2019-01-19T05:26:47.200Z,11.40
2019-01-19T05:29:14.036Z,11.18
2019-01-19T05:31:40.796Z,11.15
2019-01-19T05:34:07.581Z,11.38
2019-01-19T05:36:38.409Z,10.10
2019-01-19T05:39:01.082Z,11.78
2019-01-19T05:41:27.832Z,11.53
2019-01-19T05:43:54.576Z,10.83
2019-01-19T05:46:21.725Z,11.35
2019-01-19T05:48:48.056Z,11.97
2019-01-19T05:51:14.796Z,11.97
2019-01-19T05:53:41.538Z,10.87
2019-01-19T05:56:08.296Z,12.00
2019-01-19T05:58:35.052Z,12.85
2019-01-19T06:01:01.807Z,10.00
2019-01-19T06:03:28.572Z,12.50
2019-01-19T06:05:55.312Z,12.68
2019-01-19T06:08:22.069Z,10.50
2019-01-19T06:10:48.815Z,11.70
2019-01-19T06:13:15.568Z,12.85
2019-01-19T06:15:42.302Z,12.05
2019-01-19T06:18:09.105Z,11.20
2019-01-19T06:20:35.817Z,12.10
2019-01-19T06:23:02.576Z,12.37
2019-01-19T06:25:29.317Z,10.23
2019-01-19T06:27:56.072Z,12.90
2019-01-19T06:30:23.260Z,11.90
2019-01-19T06:32:50.017Z,11.10
2019-01-19T06:35:16.772Z,11.93
2019-01-19T06:37:43.533Z,10.80
2019-01-19T06:40:11.268Z,12.30
2019-01-19T06:42:38.020Z,12.65
2019-01-19T06:45:08.241Z,10.67
2019-01-19T06:47:35.004Z,12.58
2019-01-19T06:50:01.777Z,12.43
2019-01-19T06:52:28.766Z,10.90
2019-01-19T06:54:55.509Z,12.90
2019-01-19T06:57:22.272Z,13.60
2019-01-19T06:59:49.016Z,10.93
2019-01-19T07:02:15.774Z,13.50
2019-01-19T07:04:42.525Z,12.98
2019-01-19T07:07:09.286Z,10.70
2019-01-19T07:09:36.020Z,12.40
2019-01-19T07:12:02.788Z,11.90
2019-01-19T07:14:29.553Z,10.90
2019-01-19T07:16:56.308Z,12.03
2019-01-19T07:19:23.049Z,12.85
2019-01-19T07:21:49.813Z,11.00
2019-01-19T07:24:16.536Z,13.05
2019-01-19T07:26:43.297Z,13.45
2019-01-19T07:29:10.033Z,11.00
2019-01-19T07:31:36.780Z,12.98
2019-01-19T07:34:04.557Z,13.93
2019-01-19T07:36:31.292Z,11.73
2019-01-19T07:38:58.020Z,14.35
2019-01-19T07:41:24.817Z,13.83
2019-01-19T07:43:51.556Z,13.10
2019-01-19T07:46:19.169Z,13.60
2019-01-19T07:48:45.152Z,13.93
2019-01-19T07:51:11.920Z,14.10
2019-01-19T07:53:38.687Z,11.63
2019-01-19T07:56:05.422Z,14.70
2019-01-19T07:58:32.197Z,11.67
2019-01-19T08:00:58.972Z,15.85
2019-01-19T08:03:25.720Z,15.95
2019-01-19T08:05:52.464Z,12.93
2019-01-19T08:08:19.216Z,14.73
2019-01-19T08:10:45.966Z,13.90
2019-01-19T08:13:12.729Z,14.45
2019-01-19T08:15:39.465Z,13.83
2019-01-19T08:18:06.232Z,12.17
2019-01-19T08:20:33.021Z,14.05
2019-01-19T08:22:59.738Z,13.80
2019-01-19T08:25:26.488Z,11.27
2019-01-19T08:27:53.240Z,13.55
2019-01-19T08:30:22.976Z,11.20
2019-01-19T08:32:50.112Z,12.95
2019-01-19T08:35:16.977Z,13.20
2019-01-19T08:37:43.771Z,11.70
2019-01-19T08:40:13.128Z,13.15
2019-01-19T08:42:39.902Z,13.43
2019-01-19T08:45:06.709Z,13.90
2019-01-19T08:47:33.464Z,13.68
2019-01-19T08:50:00.233Z,12.33
2019-01-19T08:52:26.961Z,13.60
2019-01-19T08:54:53.719Z,12.77
2019-01-19T08:57:20.468Z,13.93
2019-01-19T08:59:47.212Z,13.03
2019-01-19T09:02:13.985Z,13.30
2019-01-19T09:04:40.978Z,13.80
2019-01-19T09:07:07.708Z,12.30
2019-01-19T09:09:34.448Z,13.50
2019-01-19T09:12:01.189Z,14.10
2019-01-19T09:14:27.960Z,12.23
2019-01-19T09:16:54.705Z,13.05
2019-01-19T09:19:21.464Z,13.80
2019-01-19T09:21:49.713Z,12.57
2019-01-19T09:24:19.784Z,14.30
2019-01-19T09:26:46.541Z,14.45
2019-01-19T09:29:13.300Z,12.23
2019-01-19T09:31:40.036Z,13.40
2019-01-19T09:34:06.833Z,13.62
2019-01-19T09:36:33.572Z,14.10
2019-01-19T09:39:00.333Z,11.43
2019-01-19T09:41:27.068Z,11.40
2019-01-19T09:43:53.829Z,11.10
2019-01-19T09:46:20.600Z,10.23
2019-01-19T09:48:47.373Z,10.63
2019-01-19T09:51:14.116Z,10.60
2019-01-19T09:53:40.880Z,10.90
2019-01-19T09:56:07.612Z,10.63
2019-01-19T09:58:34.371Z,10.30
2019-01-19T10:01:01.124Z,10.13
2019-01-19T10:03:27.896Z,11.10
2019-01-19T10:05:54.651Z,10.65
2019-01-19T10:08:21.417Z,10.00
2019-01-19T10:10:48.252Z,10.93
2019-01-19T10:13:15.004Z,10.40
2019-01-19T10:15:41.782Z,10.63
2019-01-19T10:18:08.513Z,9.20
2019-01-19T10:20:35.268Z,9.55
2019-01-19T10:23:02.018Z,10.20
2019-01-19T10:25:28.764Z,8.50
2019-01-19T10:27:55.519Z,9.25
2019-01-19T10:30:23.804Z,9.70
2019-01-19T10:32:50.558Z,10.00
2019-01-19T10:35:17.368Z,8.95
2019-01-19T10:37:44.100Z,8.70
2019-01-19T10:40:11.488Z,8.40
2019-01-19T10:42:38.267Z,9.48
2019-01-19T10:45:06.814Z,10.20
2019-01-19T10:47:33.562Z,10.03
2019-01-19T10:50:00.353Z,8.63
2019-01-19T10:52:27.104Z,9.50
2019-01-19T10:54:53.855Z,10.85
2019-01-19T10:57:20.602Z,9.40
2019-01-19T10:59:47.364Z,9.90
2019-01-19T11:02:14.133Z,10.50
2019-01-19T11:04:40.899Z,10.10
2019-01-19T11:07:07.660Z,10.20
2019-01-19T11:09:34.442Z,11.63
2019-01-19T11:12:01.257Z,9.37
2019-01-19T11:14:28.012Z,11.00
2019-01-19T11:16:54.778Z,11.38
2019-01-19T11:19:21.565Z,10.00
2019-01-19T11:21:48.324Z,11.90
2019-01-19T11:24:15.129Z,9.85
2019-01-19T11:26:41.900Z,9.20
2019-01-19T11:29:08.664Z,10.10
2019-01-19T11:31:35.451Z,10.53
2019-01-19T11:34:02.966Z,10.30
2019-01-19T11:36:29.119Z,9.63
2019-01-19T11:38:55.877Z,9.33
2019-01-19T11:41:22.689Z,9.63
2019-01-19T11:43:49.433Z,9.33
2019-01-19T11:46:16.249Z,9.45
2019-01-19T11:48:43.020Z,8.73
2019-01-19T11:51:09.845Z,9.45
2019-01-19T11:53:36.602Z,8.93
2019-01-19T11:56:04.472Z,7.40
2019-01-19T11:58:31.193Z,7.97
2019-01-19T12:00:57.955Z,8.00
2019-01-19T12:03:24.705Z,7.73
2019-01-19T12:05:51.472Z,8.20
2019-01-19T12:08:19.659Z,8.53
2019-01-19T12:10:44.996Z,8.00
2019-01-19T12:13:11.756Z,8.30
2019-01-19T12:15:38.539Z,7.93
2019-01-19T12:18:05.293Z,8.10
2019-01-19T12:20:37.326Z,7.90
2019-01-19T12:23:04.132Z,7.90
2019-01-19T12:25:30.900Z,6.97
2019-01-19T12:27:57.663Z,7.37
2019-01-19T12:30:26.261Z,7.70
2019-01-19T12:32:53.017Z,7.67
2019-01-19T12:35:19.780Z,7.20
2019-01-19T12:37:46.562Z,7.40
2019-01-19T12:40:14.721Z,7.80
2019-01-19T12:42:42.265Z,7.50
2019-01-19T12:45:12.300Z,7.80
2019-01-19T12:47:39.119Z,9.27
2019-01-19T12:50:09.985Z,18.50
2019-01-19T12:52:36.810Z,9.50
2019-01-19T12:55:04.117Z,10.80
2019-01-19T12:57:30.877Z,8.37
2019-01-19T12:59:59.210Z,8.50
2019-01-19T13:02:24.456Z,10.77
2019-01-19T13:04:51.340Z,9.78
2019-01-19T13:07:18.099Z,8.30
2019-01-19T13:09:49.403Z,7.90
2019-01-19T13:12:26.126Z,8.10
2019-01-19T13:15:06.881Z,8.17
2019-01-19T13:17:52.172Z,9.10
2019-01-19T13:20:26.952Z,9.18
2019-01-19T13:23:37.744Z,9.10
2019-01-19T13:26:28.004Z,10.63
2019-01-19T13:29:19.844Z,8.20
2019-01-19T13:32:01.977Z,9.73
2019-01-19T13:34:51.029Z,9.87
2019-01-19T13:37:28.653Z,9.23
2019-01-19T13:40:22.566Z,9.20
2019-01-19T13:43:07.605Z,8.30
2019-01-19T13:45:47.444Z,9.90
2019-01-19T13:48:44.365Z,10.23
2019-01-19T13:51:39.988Z,8.40
2019-01-19T13:54:38.190Z,8.63
2019-01-19T13:57:18.216Z,8.60
2019-01-19T13:59:59.085Z,8.93
2019-01-19T14:03:02.796Z,8.07
2019-01-19T14:06:14.189Z,9.53
2019-01-19T14:09:06.272Z,9.10
2019-01-19T14:12:05.528Z,9.18
2019-01-19T14:15:00.272Z,9.13
2019-01-19T14:17:44.864Z,10.10
2019-01-19T14:20:35.064Z,9.40
2019-01-19T14:23:13.344Z,9.27
2019-01-19T14:25:48.792Z,10.88
2019-01-19T14:28:28.086Z,9.90
2019-01-19T14:31:20.266Z,9.77
2019-01-19T14:34:02.077Z,10.20
2019-01-19T14:37:00.260Z,9.53
2019-01-19T14:39:52.984Z,10.72
2019-01-19T14:43:01.932Z,10.93
2019-01-19T14:45:47.308Z,9.50
2019-01-19T14:48:44.588Z,10.48
2019-01-19T14:51:43.404Z,10.43
2019-01-19T14:54:26.453Z,10.90
2019-01-19T14:57:10.547Z,10.78
2019-01-19T15:00:14.161Z,10.10
2019-01-19T15:03:15.140Z,10.70
2019-01-19T15:06:08.392Z,11.17
2019-01-19T15:09:03.982Z,11.65
2019-01-19T15:11:49.948Z,10.27
2019-01-19T15:14:30.181Z,11.10
2019-01-19T15:17:15.492Z,11.08
2019-01-19T15:19:53.931Z,13.78
2019-01-19T15:22:35.736Z,15.97
2019-01-19T15:25:42.586Z,13.55
2019-01-19T15:28:39.760Z,10.75
2019-01-19T15:31:34.004Z,13.00
2019-01-19T15:34:26.488Z,12.78
2019-01-19T15:37:08.992Z,10.57
2019-01-19T15:40:02.721Z,11.60
2019-01-19T15:42:54.349Z,12.47
2019-01-19T15:45:47.916Z,11.00
2019-01-19T15:48:41.516Z,15.87
2019-01-19T15:51:39.817Z,15.73
2019-01-19T15:54:47.197Z,17.30
2019-01-19T15:57:25.063Z,18.77
2019-01-19T16:00:06.089Z,15.73
2019-01-19T16:03:02.272Z,14.23
2019-01-19T16:05:41.430Z,13.00
2019-01-19T16:08:32.572Z,11.47
2019-01-19T16:11:06.807Z,12.80
2019-01-19T16:14:01.016Z,14.50
2019-01-19T16:16:48.036Z,14.30
2019-01-19T16:19:29.416Z,17.23
2019-01-19T16:22:24.720Z,15.85
2019-01-19T16:25:06.745Z,12.50
2019-01-19T16:27:47.891Z,13.45
2019-01-19T16:30:34.910Z,14.98
2019-01-19T16:33:28.817Z,13.83
2019-01-19T16:36:23.745Z,14.00
2019-01-19T16:39:29.313Z,14.33
2019-01-19T16:42:04.332Z,13.70
2019-01-19T16:45:09.996Z,12.60
2019-01-19T16:48:11.617Z,14.60
2019-01-19T16:51:20.493Z,13.58
2019-01-19T16:53:58.663Z,12.93
2019-01-19T16:56:35.992Z,13.90
2019-01-19T16:59:24.773Z,13.80
2019-01-19T17:02:01.649Z,12.27
2019-01-19T17:05:14.716Z,14.40
2019-01-19T17:07:55.551Z,15.83
2019-01-19T17:10:31.396Z,14.50
2019-01-19T17:13:14.528Z,13.23
2019-01-19T17:15:51.816Z,14.20
2019-01-19T17:18:43.451Z,13.98
2019-01-19T17:21:24.073Z,12.93
2019-01-19T17:24:19.713Z,14.87
2019-01-19T17:27:01.922Z,14.98
2019-01-19T17:30:03.372Z,13.50
2019-01-19T17:32:41.244Z,15.30
2019-01-19T17:35:39.589Z,17.32
2019-01-19T17:38:14.892Z,16.70
2019-01-19T17:40:59.540Z,18.95
2019-01-19T17:43:37.463Z,19.00
2019-01-19T17:46:20.045Z,19.27
2019-01-19T17:49:11.736Z,18.73
2019-01-19T17:52:10.226Z,20.50
2019-01-19T17:55:07.328Z,18.37
2019-01-19T17:58:16.273Z,19.05
2019-01-19T18:01:04.737Z,19.40
2019-01-19T18:03:59.900Z,16.00
2019-01-19T18:06:41.733Z,17.70
2019-01-19T18:09:47.402Z,18.45
2019-01-19T18:12:21.777Z,16.40
2019-01-19T18:15:07.423Z,18.80
2019-01-19T18:17:49.347Z,18.30
2019-01-19T18:20:34.160Z,17.23
2019-01-19T18:23:21.037Z,19.50
2019-01-19T18:26:06.151Z,21.00
2019-01-19T18:28:47.342Z,16.93
2019-01-19T18:31:33.663Z,19.10
2019-01-19T18:34:23.824Z,16.33
2019-01-19T18:37:22.004Z,19.20
2019-01-19T18:39:57.792Z,18.87
2019-01-19T18:42:48.793Z,19.10
2019-01-19T18:45:28.970Z,21.12
2019-01-19T18:48:11.257Z,20.90
2019-01-19T18:50:57.881Z,22.30
2019-01-19T18:53:36.213Z,21.55
2019-01-19T18:56:16.716Z,20.40
2019-01-19T18:59:20.815Z,19.37
2019-01-19T19:02:12.620Z,19.42
2019-01-19T19:05:08.915Z,16.93
2019-01-19T19:08:06.376Z,20.05
2019-01-19T19:10:44.863Z,20.25
2019-01-19T19:13:24.608Z,18.10
2019-01-19T19:16:16.479Z,20.70
2019-01-19T19:18:55.744Z,20.27
2019-01-19T19:21:37.806Z,16.40
2019-01-19T19:24:35.068Z,20.80
2019-01-19T19:27:30.955Z,19.55
2019-01-19T19:30:11.596Z,17.40
2019-01-19T19:32:50.069Z,18.75
2019-01-19T19:35:28.852Z,19.52
2019-01-19T19:38:18.432Z,17.33
2019-01-19T19:41:03.992Z,19.40
2019-01-19T19:43:41.744Z,19.70
2019-01-19T19:46:36.595Z,19.40
2019-01-19T19:49:21.428Z,16.50
2019-01-19T19:51:55.307Z,18.55
2019-01-19T19:54:23.388Z,19.70
2019-01-19T19:56:50.273Z,15.10
2019-01-19T19:59:17.020Z,18.85
2019-01-19T20:01:43.776Z,19.05
2019-01-19T20:04:10.512Z,17.80
2019-01-19T20:06:37.277Z,18.80
2019-01-19T20:09:06.220Z,20.27
2019-01-19T20:11:32.983Z,17.13
2019-01-19T20:13:59.711Z,19.48
2019-01-19T20:16:26.492Z,19.90
2019-01-19T20:18:53.238Z,16.47
2019-01-19T20:21:19.996Z,19.65
2019-01-19T20:23:46.745Z,19.60
2019-01-19T20:26:13.480Z,17.70
2019-01-19T20:28:40.229Z,20.92
2019-01-19T20:31:07.044Z,20.37
2019-01-19T20:33:33.808Z,17.53
2019-01-19T20:36:00.557Z,20.02
2019-01-19T20:38:27.312Z,19.80
2019-01-19T20:40:54.053Z,17.50
2019-01-19T20:43:20.809Z,19.30
2019-01-19T20:45:47.907Z,20.57
2019-01-19T20:48:14.325Z,17.87
2019-01-19T20:50:41.069Z,19.85
2019-01-19T20:53:09.053Z,20.25
2019-01-19T20:55:34.584Z,18.10
2019-01-19T20:58:01.336Z,19.95
2019-01-19T21:00:28.068Z,20.50
2019-01-19T21:02:56.013Z,17.97
2019-01-19T21:05:22.736Z,20.20
2019-01-19T21:07:49.537Z,17.67
2019-01-19T21:10:16.256Z,21.30
2019-01-19T21:12:43.021Z,17.90
2019-01-19T21:15:10.707Z,20.57
2019-01-19T21:17:38.143Z,21.65
2019-01-19T21:20:06.620Z,17.37
2019-01-19T21:22:33.398Z,21.40
2019-01-19T21:25:00.254Z,21.73
2019-01-19T21:27:26.943Z,22.77
2019-01-19T21:29:54.528Z,17.40
2019-01-19T21:32:22.460Z,22.73
2019-01-19T21:34:49.200Z,22.10
2019-01-19T21:37:15.952Z,18.70
2019-01-19T21:39:42.681Z,20.60
2019-01-19T21:42:09.440Z,20.43
2019-01-19T21:44:36.181Z,18.40
2019-01-19T21:47:02.980Z,20.80
2019-01-19T21:49:29.765Z,20.57
2019-01-19T21:51:56.542Z,18.97
2019-01-19T21:54:23.319Z,20.70
2019-01-19T21:56:50.089Z,20.85
2019-01-19T21:59:16.885Z,18.30
2019-01-19T22:01:43.638Z,21.23
2019-01-19T22:04:10.442Z,21.45
2019-01-19T22:06:37.201Z,19.80
2019-01-19T22:09:06.277Z,20.80
2019-01-19T22:11:33.037Z,22.75
2019-01-19T22:13:59.823Z,18.80
2019-01-19T22:16:26.580Z,22.82
2019-01-19T22:18:53.369Z,21.82
2019-01-19T22:21:20.140Z,18.70
2019-01-19T22:23:47.081Z,21.40
2019-01-19T22:26:14.624Z,23.18
2019-01-19T22:28:41.413Z,20.00
2019-01-19T22:31:08.192Z,23.45
2019-01-19T22:33:34.967Z,22.55
2019-01-19T22:36:01.718Z,20.60
2019-01-19T22:38:28.496Z,23.83
2019-01-19T22:40:55.269Z,23.87
2019-01-19T22:43:28.396Z,21.70
2019-01-19T22:45:55.152Z,24.37
2019-01-19T22:48:21.930Z,24.45
2019-01-19T22:50:48.710Z,22.73
2019-01-19T22:53:18.606Z,25.45
2019-01-19T22:55:45.368Z,25.30
2019-01-19T22:58:12.204Z,21.37
2019-01-19T23:01:05.969Z,25.55
2019-01-19T23:03:34.922Z,25.60
2019-01-19T23:06:01.685Z,22.17
2019-01-19T23:08:28.464Z,25.08
2019-01-19T23:11:01.162Z,24.90
2019-01-19T23:13:22.068Z,22.13
2019-01-19T23:15:48.818Z,26.00
2019-01-19T23:18:15.600Z,21.87
2019-01-19T23:20:42.368Z,25.17
2019-01-19T23:23:09.132Z,25.75
2019-01-19T23:25:35.921Z,21.10
2019-01-19T23:28:02.677Z,25.68
2019-01-19T23:30:29.456Z,25.80
2019-01-19T23:32:56.226Z,20.90
2019-01-19T23:35:23.013Z,25.15
2019-01-19T23:37:49.774Z,20.90
2019-01-19T23:40:16.737Z,24.95
2019-01-19T23:42:47.337Z,22.27
2019-01-19T23:45:10.266Z,24.50
2019-01-19T23:47:37.041Z,26.02
2019-01-19T23:50:03.988Z,20.87
2019-01-19T23:52:30.769Z,24.80
2019-01-19T23:54:57.598Z,25.40
2019-01-19T23:57:24.357Z,25.27
2019-01-19T23:59:51.301Z,21.30
